createdAt,value
2023-03-02T00:00:28.184Z,2.19
2023-03-02T00:02:58.077Z,2.18
2023-03-02T00:05:28.614Z,2.19
2023-03-02T00:08:00.545Z,2.32
2023-03-02T00:10:30.531Z,2.16
2023-03-02T00:13:00.909Z,2.18
2023-03-02T00:15:30.501Z,2.02
2023-03-02T00:18:00.279Z,1.96
2023-03-02T00:20:30.047Z,2.05
2023-03-02T00:22:59.873Z,2.05
2023-03-02T00:25:29.758Z,1.94
2023-03-02T00:27:59.544Z,1.96
2023-03-02T00:30:29.416Z,1.99
2023-03-02T00:32:59.249Z,1.88
2023-03-02T00:35:29.396Z,1.85
2023-03-02T00:37:59.334Z,1.99
2023-03-02T00:40:29.098Z,1.86
2023-03-02T00:42:58.850Z,2.05
2023-03-02T00:45:28.647Z,2.10
2023-03-02T00:47:58.785Z,1.87
2023-03-02T00:50:28.599Z,2.19
2023-03-02T00:52:58.810Z,2.24
2023-03-02T00:55:28.516Z,2.04
2023-03-02T00:57:58.659Z,2.23
2023-03-02T01:00:31.280Z,2.08
2023-03-02T01:03:03.192Z,2.25
2023-03-02T01:05:34.250Z,1.86
2023-03-02T01:08:06.784Z,2.09
2023-03-02T01:10:38.458Z,2.07
2023-03-02T01:13:08.358Z,2.07
2023-03-02T01:15:38.326Z,1.99
2023-03-02T01:18:11.057Z,2.06
2023-03-02T01:20:41.329Z,1.93
2023-03-02T01:23:11.128Z,1.86
2023-03-02T01:25:41.222Z,1.95
2023-03-02T01:28:11.006Z,1.67
2023-03-02T01:30:40.790Z,1.71
2023-03-02T01:33:11.837Z,1.81
2023-03-02T01:35:41.761Z,1.86
2023-03-02T01:38:11.778Z,1.92
2023-03-02T01:40:41.676Z,1.85
2023-03-02T01:43:15.460Z,1.90
2023-03-02T01:45:57.412Z,1.83
2023-03-02T01:48:52.973Z,1.76
2023-03-02T01:51:29.330Z,1.59
2023-03-02T01:54:05.386Z,1.51
2023-03-02T01:56:38.255Z,1.73
2023-03-02T01:59:13.944Z,1.74
2023-03-02T02:01:46.591Z,1.72
2023-03-02T02:04:16.278Z,1.78
2023-03-02T02:07:00.879Z,1.88
2023-03-02T02:09:33.624Z,1.75
2023-03-02T02:12:03.721Z,1.74
2023-03-02T02:14:34.148Z,1.86
2023-03-02T02:17:03.962Z,1.86
2023-03-02T02:20:07.822Z,1.80
2023-03-02T02:22:49.370Z,1.64
2023-03-02T02:25:21.989Z,1.69
2023-03-02T02:27:52.284Z,1.79
2023-03-02T02:30:23.226Z,1.74
2023-03-02T02:32:55.650Z,1.74
2023-03-02T02:35:28.334Z,1.82
2023-03-02T02:38:04.415Z,1.91
2023-03-02T02:40:50.986Z,1.80
2023-03-02T02:43:23.346Z,1.76
2023-03-02T02:45:56.664Z,1.95
2023-03-02T02:48:31.082Z,1.83
2023-03-02T02:51:03.119Z,1.80
2023-03-02T02:53:50.972Z,1.81
2023-03-02T02:56:20.852Z,1.72
2023-03-02T02:58:53.723Z,2.09
2023-03-02T03:01:26.291Z,1.85
2023-03-02T03:04:05.015Z,1.70
2023-03-02T03:06:42.653Z,1.61
2023-03-02T03:09:14.381Z,1.64
2023-03-02T03:11:49.292Z,1.58
2023-03-02T03:14:23.178Z,1.65
2023-03-02T03:16:53.949Z,1.56
2023-03-02T03:19:29.964Z,1.59
2023-03-02T03:22:00.529Z,1.59
2023-03-02T03:24:34.094Z,1.26
2023-03-02T03:27:08.466Z,1.56
2023-03-02T03:29:42.371Z,1.56
2023-03-02T03:32:12.838Z,1.35
2023-03-02T03:34:42.813Z,1.52
2023-03-02T03:37:17.866Z,1.64
2023-03-02T03:39:48.449Z,1.50
2023-03-02T03:42:18.720Z,1.58
2023-03-02T03:44:48.865Z,1.52
2023-03-02T03:47:18.795Z,1.57
2023-03-02T03:49:49.054Z,1.59
2023-03-02T03:52:18.952Z,1.48
2023-03-02T03:54:48.828Z,1.55
2023-03-02T03:57:18.745Z,1.52
2023-03-02T03:59:48.828Z,1.52
2023-03-02T04:02:19.652Z,1.47
2023-03-02T04:04:49.693Z,1.16
2023-03-02T04:07:21.267Z,1.06
2023-03-02T04:09:53.205Z,1.09
2023-03-02T04:12:23.144Z,1.03
2023-03-02T04:14:54.713Z,1.27
2023-03-02T04:17:24.799Z,1.27
2023-03-02T04:19:55.774Z,1.19
2023-03-02T04:22:26.321Z,1.24
2023-03-02T04:24:56.300Z,1.17
2023-03-02T04:27:27.265Z,1.18
2023-03-02T04:29:57.116Z,0.85
2023-03-02T04:32:27.268Z,1.09
2023-03-02T04:34:58.033Z,1.09
2023-03-02T04:37:28.531Z,1.01
2023-03-02T04:39:58.922Z,0.97
2023-03-02T04:42:28.689Z,0.91
2023-03-02T04:44:58.277Z,0.87
2023-03-02T04:47:28.182Z,0.93
2023-03-02T04:49:57.992Z,0.74
2023-03-02T04:52:27.818Z,0.96
2023-03-02T04:54:57.687Z,1.00
2023-03-02T04:57:27.519Z,0.84
2023-03-02T04:59:57.325Z,0.95
2023-03-02T05:02:27.015Z,1.11
2023-03-02T05:04:57.148Z,0.92
2023-03-02T05:07:27.123Z,1.08
2023-03-02T05:09:56.984Z,1.00
2023-03-02T05:12:26.717Z,0.99
2023-03-02T05:14:56.683Z,1.00
2023-03-02T05:17:26.706Z,1.03
2023-03-02T05:19:56.823Z,0.89
2023-03-02T05:22:26.496Z,0.97
2023-03-02T05:24:56.297Z,1.14
2023-03-02T05:27:26.134Z,1.14
2023-03-02T05:29:55.967Z,0.81
2023-03-02T05:32:25.902Z,0.81
2023-03-02T05:34:55.655Z,0.66
2023-03-02T05:37:25.905Z,0.64
2023-03-02T05:39:55.414Z,0.58
2023-03-02T05:42:25.396Z,0.72
2023-03-02T05:44:55.533Z,0.44
2023-03-02T05:47:25.349Z,0.55
2023-03-02T05:49:55.133Z,0.60
2023-03-02T05:52:24.792Z,0.70
2023-03-02T05:54:54.907Z,0.62
2023-03-02T05:57:25.286Z,0.59
2023-03-02T05:59:55.190Z,0.56
2023-03-02T06:02:24.834Z,0.67
2023-03-02T06:04:54.628Z,0.75
2023-03-02T06:07:24.782Z,0.45
2023-03-02T06:09:54.689Z,0.62
2023-03-02T06:12:24.309Z,0.48
2023-03-02T06:14:54.133Z,0.48
2023-03-02T06:17:23.980Z,0.52
2023-03-02T06:19:53.953Z,0.41
2023-03-02T06:22:23.480Z,0.35
2023-03-02T06:24:55.151Z,0.39
2023-03-02T06:27:25.008Z,0.39
2023-03-02T06:29:54.895Z,0.63
2023-03-02T06:32:24.515Z,0.60
2023-03-02T06:34:54.689Z,0.61
2023-03-02T06:37:24.722Z,0.63
2023-03-02T06:39:54.521Z,0.52
2023-03-02T06:42:25.780Z,0.48
2023-03-02T06:44:55.929Z,0.42
2023-03-02T06:47:25.894Z,0.41
2023-03-02T06:49:56.585Z,0.48
2023-03-02T06:52:27.482Z,0.13
2023-03-02T06:54:57.565Z,0.30
2023-03-02T06:57:29.146Z,0.35
2023-03-02T07:00:02.102Z,0.26
2023-03-02T07:02:31.946Z,0.30
2023-03-02T07:05:01.892Z,0.46
2023-03-02T07:07:31.829Z,0.27
2023-03-02T07:10:01.694Z,0.52
2023-03-02T07:12:31.942Z,0.58
2023-03-02T07:15:01.904Z,0.66
2023-03-02T07:17:32.086Z,0.67
2023-03-02T07:20:02.049Z,0.69
2023-03-02T07:22:32.550Z,0.78
2023-03-02T07:25:02.329Z,0.87
2023-03-02T07:27:32.387Z,1.05
2023-03-02T07:30:02.352Z,1.29
2023-03-02T07:32:34.490Z,1.29
2023-03-02T07:35:04.522Z,1.50
2023-03-02T07:37:35.467Z,1.55
2023-03-02T07:40:07.582Z,1.74
2023-03-02T07:42:37.433Z,1.86
2023-03-02T07:45:08.603Z,1.91
2023-03-02T07:47:38.799Z,1.97
2023-03-02T07:50:13.504Z,1.97
2023-03-02T07:52:43.780Z,2.01
2023-03-02T07:55:13.576Z,2.46
2023-03-02T07:57:43.505Z,2.41
2023-03-02T08:00:16.370Z,2.50
2023-03-02T08:02:46.279Z,2.35
2023-03-02T08:05:16.874Z,2.64
2023-03-02T08:07:48.720Z,2.44
2023-03-02T08:10:18.308Z,2.85
2023-03-02T08:12:48.235Z,2.78
2023-03-02T08:15:17.916Z,3.01
2023-03-02T08:17:48.017Z,2.95
2023-03-02T08:20:17.846Z,3.02
2023-03-02T08:22:47.766Z,2.89
2023-03-02T08:25:17.980Z,2.96
2023-03-02T08:27:47.850Z,3.31
2023-03-02T08:30:17.514Z,3.49
2023-03-02T08:32:47.469Z,3.43
2023-03-02T08:35:17.374Z,3.77
2023-03-02T08:37:47.169Z,3.83
2023-03-02T08:40:17.096Z,3.30
2023-03-02T08:42:47.034Z,3.25
2023-03-02T08:45:16.869Z,3.91
2023-03-02T08:47:47.052Z,3.52
2023-03-02T08:50:17.154Z,3.52
2023-03-02T08:52:47.001Z,3.68
2023-03-02T08:55:18.572Z,3.68
2023-03-02T08:57:49.043Z,3.26
2023-03-02T09:00:19.458Z,3.46
2023-03-02T09:02:49.318Z,3.58
2023-03-02T09:05:19.248Z,3.81
2023-03-02T09:07:49.126Z,3.64
2023-03-02T09:10:19.011Z,3.75
2023-03-02T09:12:49.026Z,4.32
2023-03-02T09:15:18.856Z,4.32
2023-03-02T09:17:48.901Z,4.26
2023-03-02T09:20:18.517Z,4.19
2023-03-02T09:22:50.273Z,4.20
2023-03-02T09:25:20.289Z,4.33
2023-03-02T09:27:50.124Z,4.33
2023-03-02T09:30:20.055Z,4.56
2023-03-02T09:32:50.801Z,4.60
2023-03-02T09:35:22.011Z,4.87
2023-03-02T09:37:51.950Z,5.44
2023-03-02T09:40:24.874Z,5.61
2023-03-02T09:43:21.806Z,5.47
2023-03-02T09:45:54.591Z,5.58
2023-03-02T09:48:42.432Z,5.65
2023-03-02T09:51:34.687Z,5.69
2023-03-02T09:54:13.895Z,6.19
2023-03-02T09:56:49.613Z,6.13
2023-03-02T09:59:31.579Z,6.37
2023-03-02T10:02:28.101Z,6.22
2023-03-02T10:05:00.784Z,5.96
2023-03-02T10:07:33.541Z,6.17
2023-03-02T10:10:12.160Z,6.47
2023-03-02T10:13:00.054Z,6.67
2023-03-02T10:15:38.530Z,6.53
2023-03-02T10:18:20.166Z,6.79
2023-03-02T10:21:08.471Z,6.94
2023-03-02T10:23:58.951Z,7.01
2023-03-02T10:26:32.299Z,7.09
2023-03-02T10:29:14.107Z,7.05
2023-03-02T10:31:45.588Z,7.20
2023-03-02T10:34:15.713Z,7.13
2023-03-02T10:36:47.781Z,6.92
2023-03-02T10:39:18.547Z,7.48
2023-03-02T10:41:57.016Z,7.45
2023-03-02T10:44:39.055Z,7.96
2023-03-02T10:47:10.959Z,7.61
2023-03-02T10:49:46.839Z,7.61
2023-03-02T10:52:18.937Z,7.90
2023-03-02T10:54:49.006Z,7.92
2023-03-02T10:57:33.896Z,7.92
2023-03-02T11:00:18.555Z,7.91
2023-03-02T11:02:54.198Z,8.51
2023-03-02T11:05:38.656Z,8.51
2023-03-02T11:08:25.425Z,8.17
2023-03-02T11:11:01.164Z,7.80
2023-03-02T11:13:35.285Z,8.16
2023-03-02T11:16:21.706Z,8.29
2023-03-02T11:18:57.228Z,8.19
2023-03-02T11:21:38.065Z,8.24
2023-03-02T11:24:12.587Z,8.22
2023-03-02T11:26:57.222Z,8.36
2023-03-02T11:29:49.561Z,8.11
2023-03-02T11:32:34.232Z,8.35
2023-03-02T11:35:22.800Z,8.35
2023-03-02T11:37:58.428Z,8.45
2023-03-02T11:40:47.221Z,8.60
2023-03-02T11:43:17.192Z,8.69
2023-03-02T11:45:53.086Z,8.77
2023-03-02T11:48:34.437Z,8.90
2023-03-02T11:51:09.654Z,9.51
2023-03-02T11:53:51.381Z,9.23
2023-03-02T11:56:21.017Z,9.66
2023-03-02T11:58:56.777Z,9.72
2023-03-02T12:01:28.801Z,9.65
2023-03-02T12:04:10.134Z,9.37
2023-03-02T12:06:44.416Z,9.14
2023-03-02T12:09:26.102Z,9.38
2023-03-02T12:12:15.075Z,9.85
2023-03-02T12:14:51.221Z,9.98
2023-03-02T12:17:30.830Z,9.61
2023-03-02T12:20:12.639Z,9.59
2023-03-02T12:22:42.633Z,9.95
2023-03-02T12:25:23.873Z,10.23
2023-03-02T12:27:55.200Z,10.31
2023-03-02T12:30:30.556Z,10.36
2023-03-02T12:33:12.689Z,10.63
2023-03-02T12:35:43.496Z,10.74
2023-03-02T12:38:31.131Z,10.69
2023-03-02T12:41:11.465Z,10.66
2023-03-02T12:43:50.414Z,10.85
2023-03-02T12:46:32.049Z,10.75
2023-03-02T12:49:30.421Z,10.66
2023-03-02T12:52:02.993Z,10.66
2023-03-02T12:54:35.414Z,10.86
2023-03-02T12:57:19.980Z,10.85
2023-03-02T13:00:01.811Z,10.94
2023-03-02T13:02:38.919Z,10.84
2023-03-02T13:05:10.380Z,10.87
2023-03-02T13:07:43.319Z,11.19
2023-03-02T13:10:25.338Z,11.44
2023-03-02T13:12:55.499Z,11.44
2023-03-02T13:15:25.378Z,11.10
2023-03-02T13:17:58.548Z,11.05
2023-03-02T13:20:30.535Z,11.17
2023-03-02T13:23:00.460Z,11.34
2023-03-02T13:25:32.431Z,11.42
2023-03-02T13:28:08.732Z,11.25
2023-03-02T13:30:41.757Z,11.28
2023-03-02T13:33:20.472Z,11.56
2023-03-02T13:35:50.441Z,11.65
2023-03-02T13:38:25.819Z,11.55
2023-03-02T13:40:57.722Z,11.38
2023-03-02T13:43:41.142Z,11.06
2023-03-02T13:46:20.539Z,11.14
2023-03-02T13:49:10.131Z,11.21
2023-03-02T13:51:41.440Z,11.28
2023-03-02T13:54:21.125Z,11.31
2023-03-02T13:56:53.727Z,11.52
2023-03-02T13:59:23.943Z,11.15
2023-03-02T14:01:53.904Z,11.20
2023-03-02T14:04:24.591Z,11.54
2023-03-02T14:06:56.141Z,10.91
2023-03-02T14:09:27.344Z,11.09
2023-03-02T14:11:59.275Z,11.29
2023-03-02T14:14:32.155Z,11.12
2023-03-02T14:17:02.051Z,11.18
2023-03-02T14:19:31.972Z,10.92
2023-03-02T14:22:02.145Z,10.98
2023-03-02T14:24:33.903Z,11.07
2023-03-02T14:27:03.301Z,11.26
2023-03-02T14:29:39.256Z,11.05
2023-03-02T14:32:12.357Z,11.05
2023-03-02T14:34:42.221Z,11.65
2023-03-02T14:37:20.882Z,12.24
2023-03-02T14:39:55.558Z,12.99
2023-03-02T14:42:25.548Z,12.84
2023-03-02T14:44:59.807Z,12.40
2023-03-02T14:47:29.814Z,12.03
2023-03-02T14:49:59.734Z,11.72
2023-03-02T14:52:38.371Z,11.37
2023-03-02T14:55:10.894Z,11.26
2023-03-02T14:57:40.819Z,11.54
2023-03-02T15:00:18.691Z,11.77
2023-03-02T15:02:49.180Z,12.12
2023-03-02T15:05:19.058Z,11.78
2023-03-02T15:07:49.330Z,11.65
2023-03-02T15:10:22.319Z,11.58
2023-03-02T15:12:52.664Z,11.28
2023-03-02T15:15:23.041Z,11.22
2023-03-02T15:17:54.279Z,11.02
2023-03-02T15:20:24.418Z,11.33
2023-03-02T15:22:54.349Z,11.05
2023-03-02T15:25:25.939Z,10.83
2023-03-02T15:27:57.546Z,10.97
2023-03-02T15:30:28.884Z,11.27
2023-03-02T15:33:01.630Z,11.33
2023-03-02T15:35:31.438Z,11.35
2023-03-02T15:38:02.989Z,11.21
2023-03-02T15:40:33.858Z,11.17
2023-03-02T15:43:05.245Z,11.31
2023-03-02T15:45:34.858Z,11.00
2023-03-02T15:48:06.640Z,10.80
2023-03-02T15:50:36.462Z,11.15
2023-03-02T15:53:06.798Z,10.91
2023-03-02T15:55:38.912Z,10.78
2023-03-02T15:58:11.120Z,11.09
2023-03-02T16:00:40.999Z,10.91
2023-03-02T16:03:12.912Z,10.76
2023-03-02T16:05:44.622Z,10.73
2023-03-02T16:08:14.101Z,10.66
2023-03-02T16:10:45.659Z,10.62
2023-03-02T16:13:15.703Z,10.04
2023-03-02T16:15:45.543Z,10.41
2023-03-02T16:18:15.310Z,10.59
2023-03-02T16:20:45.163Z,10.67
2023-03-02T16:23:15.921Z,11.21
2023-03-02T16:25:47.814Z,10.75
2023-03-02T16:28:19.087Z,10.31
2023-03-02T16:30:49.174Z,10.55
2023-03-02T16:33:19.610Z,10.04
2023-03-02T16:35:50.321Z,10.04
2023-03-02T16:38:20.182Z,9.56
2023-03-02T16:40:51.932Z,9.27
2023-03-02T16:43:23.564Z,9.27
2023-03-02T16:45:54.016Z,9.29
2023-03-02T16:48:24.214Z,9.14
2023-03-02T16:50:58.703Z,8.94
2023-03-02T16:53:28.373Z,9.08
2023-03-02T16:55:58.556Z,9.04
2023-03-02T16:58:28.256Z,8.61
2023-03-02T17:00:58.207Z,8.80
2023-03-02T17:03:28.121Z,8.85
2023-03-02T17:05:57.926Z,8.75
2023-03-02T17:08:28.172Z,8.63
2023-03-02T17:10:58.236Z,8.59
2023-03-02T17:13:28.083Z,8.46
2023-03-02T17:15:58.851Z,8.30
2023-03-02T17:18:29.985Z,8.24
2023-03-02T17:21:00.296Z,7.96
2023-03-02T17:23:31.308Z,7.85
2023-03-02T17:26:01.039Z,7.84
2023-03-02T17:28:31.042Z,7.84
2023-03-02T17:31:04.026Z,7.62
2023-03-02T17:33:33.955Z,7.48
2023-03-02T17:36:12.263Z,7.53
2023-03-02T17:38:42.620Z,7.45
2023-03-02T17:41:13.013Z,7.55
2023-03-02T17:43:43.646Z,7.25
2023-03-02T17:46:25.509Z,7.31
2023-03-02T17:48:57.749Z,7.28
2023-03-02T17:51:29.305Z,7.23
2023-03-02T17:53:59.188Z,7.10
2023-03-02T17:56:30.111Z,6.92
2023-03-02T17:59:02.452Z,6.94
2023-03-02T18:01:33.231Z,6.95
2023-03-02T18:04:03.146Z,6.86
2023-03-02T18:06:33.589Z,6.86
2023-03-02T18:09:03.557Z,6.84
2023-03-02T18:11:33.811Z,6.84
2023-03-02T18:14:04.986Z,6.71
2023-03-02T18:16:35.619Z,6.69
2023-03-02T18:19:05.802Z,6.65
2023-03-02T18:21:36.865Z,6.53
2023-03-02T18:24:08.576Z,6.44
2023-03-02T18:26:38.700Z,6.37
2023-03-02T18:29:08.770Z,6.22
2023-03-02T18:31:38.729Z,6.15
2023-03-02T18:34:09.709Z,6.14
2023-03-02T18:36:39.701Z,6.01
2023-03-02T18:39:09.587Z,6.03
2023-03-02T18:41:39.450Z,6.04
2023-03-02T18:44:11.497Z,5.86
2023-03-02T18:46:41.714Z,5.89
2023-03-02T18:49:11.849Z,5.62
2023-03-02T18:51:43.195Z,5.70
2023-03-02T18:54:13.029Z,5.63
2023-03-02T18:56:42.818Z,5.60
2023-03-02T18:59:13.239Z,5.40
2023-03-02T19:01:44.767Z,5.53
2023-03-02T19:04:15.423Z,5.45
2023-03-02T19:06:45.513Z,5.51
2023-03-02T19:09:15.466Z,5.40
2023-03-02T19:11:45.247Z,5.50
2023-03-02T19:14:16.079Z,5.40
2023-03-02T19:16:46.451Z,5.31
2023-03-02T19:19:16.317Z,5.12
2023-03-02T19:21:46.223Z,5.15
2023-03-02T19:24:15.680Z,5.08
2023-03-02T19:26:46.514Z,4.89
2023-03-02T19:29:16.329Z,4.94
2023-03-02T19:31:46.145Z,4.80
2023-03-02T19:34:16.124Z,4.76
2023-03-02T19:36:46.675Z,4.73
2023-03-02T19:39:16.429Z,4.73
2023-03-02T19:41:46.408Z,4.67
2023-03-02T19:44:16.485Z,4.67
2023-03-02T19:46:46.370Z,4.72
2023-03-02T19:49:16.244Z,4.72
2023-03-02T19:51:46.162Z,4.52
2023-03-02T19:54:16.209Z,4.57
2023-03-02T19:56:47.789Z,4.51
2023-03-02T19:59:17.935Z,4.58
2023-03-02T20:01:49.301Z,4.54
2023-03-02T20:04:19.420Z,4.38
2023-03-02T20:06:49.243Z,4.44
2023-03-02T20:09:20.208Z,4.45
2023-03-02T20:11:50.317Z,4.45
2023-03-02T20:14:31.566Z,4.35
2023-03-02T20:16:52.079Z,4.31
2023-03-02T20:19:22.307Z,4.34
2023-03-02T20:21:52.089Z,4.35
2023-03-02T20:24:22.061Z,4.36
2023-03-02T20:26:51.837Z,4.47
2023-03-02T20:29:21.660Z,4.44
2023-03-02T20:31:51.594Z,4.41
2023-03-02T20:34:21.762Z,4.41
2023-03-02T20:36:51.510Z,4.22
2023-03-02T20:39:24.482Z,4.22
2023-03-02T20:41:54.370Z,4.23
2023-03-02T20:44:25.895Z,4.09
2023-03-02T20:46:59.036Z,4.10
2023-03-02T20:49:32.096Z,4.10
2023-03-02T20:52:02.682Z,4.03
2023-03-02T20:54:35.816Z,3.78
2023-03-02T20:57:07.896Z,3.84
2023-03-02T20:59:38.946Z,3.90
2023-03-02T21:02:09.714Z,3.90
2023-03-02T21:04:40.846Z,3.96
2023-03-02T21:07:12.210Z,3.80
2023-03-02T21:09:43.294Z,3.80
2023-03-02T21:12:13.852Z,3.75
2023-03-02T21:14:43.908Z,3.78
2023-03-02T21:17:13.807Z,3.65
2023-03-02T21:19:44.007Z,3.66
2023-03-02T21:22:14.016Z,3.60
2023-03-02T21:24:43.983Z,3.69
2023-03-02T21:27:14.026Z,3.73
2023-03-02T21:29:43.861Z,3.73
2023-03-02T21:32:13.365Z,3.53
2023-03-02T21:34:44.536Z,3.68
2023-03-02T21:37:14.447Z,3.72
2023-03-02T21:39:44.214Z,3.43
2023-03-02T21:42:14.043Z,3.72
2023-03-02T21:44:43.842Z,3.56
2023-03-02T21:47:13.596Z,3.61
2023-03-02T21:49:43.790Z,3.71
2023-03-02T21:52:13.615Z,3.57
2023-03-02T21:54:43.660Z,3.55
2023-03-02T21:57:13.828Z,3.55
2023-03-02T21:59:43.629Z,3.27
2023-03-02T22:02:13.891Z,3.49
2023-03-02T22:04:45.847Z,3.43
2023-03-02T22:07:15.696Z,3.34
2023-03-02T22:09:45.926Z,3.18
2023-03-02T22:12:16.149Z,3.36
2023-03-02T22:14:46.115Z,3.15
2023-03-02T22:17:24.583Z,3.15
2023-03-02T22:19:54.777Z,3.08
2023-03-02T22:22:27.318Z,3.00
2023-03-02T22:24:57.201Z,3.03
2023-03-02T22:27:29.930Z,3.09
2023-03-02T22:30:02.028Z,3.05
2023-03-02T22:32:34.551Z,2.92
2023-03-02T22:35:26.145Z,2.88
2023-03-02T22:38:10.593Z,3.00
2023-03-02T22:40:41.376Z,3.15
2023-03-02T22:43:14.288Z,3.12
2023-03-02T22:45:44.329Z,2.89
2023-03-02T22:48:22.758Z,3.04
2023-03-02T22:50:53.326Z,2.93
2023-03-02T22:53:33.227Z,3.11
2023-03-02T22:56:04.964Z,3.11
2023-03-02T22:58:42.578Z,3.21
2023-03-02T23:01:26.767Z,3.50
2023-03-02T23:04:02.304Z,3.43
2023-03-02T23:06:33.612Z,3.26
2023-03-02T23:09:06.293Z,3.11
2023-03-02T23:11:39.502Z,3.40
2023-03-02T23:14:23.133Z,3.35
2023-03-02T23:16:55.846Z,3.39
2023-03-02T23:19:29.488Z,3.39
2023-03-02T23:21:59.509Z,3.53
2023-03-02T23:24:29.320Z,3.54
2023-03-02T23:26:59.164Z,3.27
2023-03-02T23:29:29.147Z,3.41
2023-03-02T23:31:59.425Z,3.30
2023-03-02T23:34:32.655Z,3.29
2023-03-02T23:37:02.878Z,3.28
2023-03-02T23:39:34.027Z,3.17
2023-03-02T23:42:04.997Z,3.22
2023-03-02T23:44:34.870Z,3.22
2023-03-02T23:47:05.191Z,3.22
2023-03-02T23:49:34.954Z,3.11
2023-03-02T23:52:06.515Z,2.92
2023-03-02T23:54:36.518Z,3.08
2023-03-02T23:57:06.679Z,2.97
2023-03-02T23:59:36.535Z,3.02
